• Join FlightAware (Why Join?)
  • Login
  • US Flag 
11:21PM EDT


 

Airport Tracker/Info


-or-


 

Live Flight TrackerFlight Track Log ✈ UAL4336 ✈ 23-Apr-2013 ✈ KIAH - KBTR

Flight Track Log - Related Links

Times and Time Zones

All times are in EDT time to prevent confusion due to time zone crossing. See the UAL4336 flight status page for this flight to view local times or setup timezone preferences in your user account.

Time Position Orientation Groundspeed Altitude Reporting Facility
EDT Latitude Longitude Course Direction KTS MPH feet Rate Location/Type
09:45AM 29.9661 -95.3456 90° East 151 174 700  Level Houston Center
09:45AM 29.9597 -95.2981 99° East 219 252 2,400 1,560 Climbing Houston Center
09:46AM 29.9600 -95.2789 89° East 205 236 2,500 2,580 Climbing Houston Center
09:46AM 29.9717 -95.2242 76° East 264 304 4,800 3,000 Climbing Houston Center
09:47AM 29.9756 -95.1986 80° East 289 333 5,600 2,640 Climbing Houston Center
09:47AM 29.9844 -95.1358 81° East 280 322 7,500 2,580 Climbing Houston Center
09:48AM 29.9834 -94.8732 90° East  Level FlightAware Approximate
09:48AM 29.9889 -95.1111 78° East 277 319 8,300  Level Houston Center
09:49AM 29.9834 -94.7581 90° East  Level FlightAware Approximate
09:49AM 29.9886 -95.0169 90° East 289 333 10,800  Level Houston Center
09:50AM 29.9833 -94.6431 90° East  Level FlightAware Approximate
09:50AM 29.9906 -94.9131 89° East 313 360 11,900  Level Houston Center
09:51AM 29.9917 -94.7708 89° East 359 413 13,100 960 Climbing Houston Center
09:52AM 29.9928 -94.6428 89° East 385 443 14,000 900 Climbing Houston Center
09:53AM 29.9939 -94.5117 89° East 403 464 15,000 960 Climbing Houston Center
09:54AM 29.9967 -94.3742 89° East 412 474 16,000 900 Climbing Houston Center
09:55AM 30.0042 -94.2386 86° East 423 487 16,900 840 Climbing Houston Center
09:56AM 30.0217 -94.1022 82° East 431 496 17,800 840 Climbing Houston Center
09:57AM 30.0392 -93.9647 82° East 436 502 18,700 900 Climbing Houston Center
09:58AM 30.0553 -93.8247 82° East 441 507 19,700 960 Climbing Houston Center
09:59AM 30.0750 -93.6556 82° East 448 516 20,800 960 Climbing Houston Center
10:00AM 30.0917 -93.5133 82° East 451 519 21,800 900 Climbing Houston Center
10:01AM 30.1086 -93.3681 82° East 461 531 22,700 540 Climbing Houston Center
10:02AM 30.1264 -93.2225 82° East 464 534 23,000  Climbing Houston Center
10:03AM 30.1519 -93.0419 81° East 478 550 22,800 -720 Descending Houston Center
10:04AM 30.1811 -92.8972 77° East 465 535 21,600 -1,200 Descending Houston Center
10:05AM 30.2089 -92.7533 77° East 460 529 20,400 -1,200 Descending Houston Center
10:06AM 30.2369 -92.6108 77° East 457 526 19,200 -720 Descending Houston Center
10:07AM 30.2639 -92.4717 77° East 447 514 19,000 -120 Descending Houston Center
10:08AM 30.2936 -92.3147 78° East 446 513 19,000 -660 Level Houston Center
10:09AM 30.3192 -92.1869 77° East 412 474 17,700 -1,500 Descending Houston Center
10:10AM 30.3408 -92.0658 78° East 390 449 15,900 -1,800 Descending Houston Center
10:11AM 30.3642 -91.9447 77° East 387 445 14,100 -2,040 Descending Houston Center
10:12AM 30.3917 -91.7975 78° East 391 450 11,800 -1,500 Descending Houston Center
10:14AM 30.4117 -91.6886 78° East 359 413 11,000 -420 Descending Houston Center
10:15AM 30.4342 -91.5797 76° East 352 405 11,000 -540 Level Houston Center
10:16AM 30.4836 -91.5028 53° Northeast 309 356 9,900 -1,380 Descending Houston Center
10:17AM 30.5300 -91.4328 52° Northeast 292 336 8,200 -1,740 Descending Houston Center
10:18AM 30.5744 -91.3661 52° Northeast 274 315 6,400 -2,160 Descending Houston Center
10:19AM 30.6189 -91.3008 52° Northeast 266 306 3,800 -2,520 Descending Houston Center
10:21AM 30.5329 -91.1499 79° East  Level Estimated
10:28AM 30.5329 -91.1499 79° East  Level Estimated